EPGD/GDN METAR and TAF weather

Enter ICAO airport designator
Station Type Date Time Source
EPGD METAR 2020/02/20 22:30 UTC NOAA

EPGD 202230Z 19014KT 150V210 9999 SCT031 04/M02 Q1010


Station Type Date Time Source
EPGD Decoded METAR 2020/02/20 22:30 UTC NOAA

Gdansk-Rebiechowo, Poland (EPGD) 54-23N 018-28E 138M
Feb 20, 2020 - 05:30 PM EST / 2020.02.20 2230 UTC
Wind: from the S (190 degrees) at 16 MPH (14 KT) (direction variable):0
Visibility: greater than 7 mile(s):0
Sky conditions: partly cloudy
Temperature: 39 F (4 C)
Dew Point: 28 F (-2 C)
Relative Humidity: 64%
Pressure (altimeter): 29.83 in. Hg (1010 hPa)
ob: EPGD 202230Z 19014KT 150V210 9999 SCT031 04/M02 Q1010
cycle: 22

Station Type Date Time Source
EPGD TAF 2020/02/20 18:33 UTC NOAA

TAF TAF EPGD 201730Z 2018/2118 18010KT CAVOK
BECMG 2022/2101 BKN014 PROB40
TEMPO 2022/2104 -RA BKN008
BECMG 2104/2106 27015KT
TEMPO 2104/2109 28020G40KT 4000 RA BKN007
BECMG 2107/2110 SCT030
TEMPO 2109/2118 -SHRA BKN020CB

Example: see airport list